Time;durP1;ratioP1;P1;durP2;ratioP2;P2;SDS_P1;SDS_P2;PMS_P1;PMS_P2;Temp;Humidity;BMP_temperature;BMP_pressure;BME280_temperature;BME280_humidity;BME280_pressure;Samples;Min_cycle;Max_cycle;Signal;HPM_P1;HPM_P2
2023/05/31 00:00:05;;;;;;;3.38;1.95;;;9.80;99.90;;;;;;5013725;28;20046;-67
2023/05/31 00:02:30;;;;;;;4.43;1.85;;;9.70;99.90;;;;;;5014719;28;20482;-66
2023/05/31 00:04:56;;;;;;;3.78;2.10;;;9.60;99.90;;;;;;5013462;28;20104;-67
2023/05/31 00:07:22;;;;;;;3.38;1.73;;;9.60;99.90;;;;;;5013512;28;20196;-67
2023/05/31 00:09:47;;;;;;;3.92;2.00;;;9.50;99.90;;;;;;5015283;28;20042;-66
2023/05/31 00:12:13;;;;;;;3.53;1.90;;;9.40;99.90;;;;;;5015010;28;20053;-66
2023/05/31 00:14:39;;;;;;;3.58;1.90;;;9.30;99.90;;;;;;5014435;28;20132;-67
2023/05/31 00:17:05;;;;;;;4.22;1.80;;;9.20;99.90;;;;;;5014408;28;20049;-67
2023/05/31 00:19:30;;;;;;;3.53;1.88;;;9.20;99.90;;;;;;5014627;28;20485;-66
2023/05/31 00:21:56;;;;;;;4.22;2.17;;;9.10;99.90;;;;;;5014354;28;20125;-66
2023/05/31 00:24:22;;;;;;;3.47;2.38;;;9.10;99.90;;;;;;5014255;28;20124;-66
2023/05/31 00:26:48;;;;;;;4.03;2.15;;;9.00;99.90;;;;;;5014776;28;20056;-67
2023/05/31 00:29:13;;;;;;;4.90;2.10;;;9.00;99.90;;;;;;5013255;28;20516;-67
2023/05/31 00:31:41;;;;;;;5.05;2.17;;;9.00;99.90;;;;;;5014194;28;20048;-66
2023/05/31 00:34:06;;;;;;;5.13;2.83;;;8.90;99.90;;;;;;5014105;28;20042;-67
2023/05/31 00:36:32;;;;;;;3.72;2.22;;;8.90;99.90;;;;;;5014100;28;20045;-67
2023/05/31 00:38:58;;;;;;;4.35;2.38;;;8.90;99.90;;;;;;5014376;28;20048;-66
2023/05/31 00:41:25;;;;;;;4.25;2.45;;;8.90;99.90;;;;;;5013989;28;20054;-67
2023/05/31 00:43:51;;;;;;;5.03;2.40;;;8.90;99.90;;;;;;5013992;28;20065;-66
2023/05/31 00:46:34;;;;;;;4.55;2.92;;;8.80;99.90;;;;;;5013996;28;20104;-67
2023/05/31 00:49:00;;;;;;;6.03;2.47;;;8.90;99.90;;;;;;5013943;28;20057;-67
2023/05/31 00:51:28;;;;;;;3.85;2.10;;;8.80;99.90;;;;;;5013863;28;20046;-66
2023/05/31 00:53:55;;;;;;;5.75;2.67;;;8.80;99.90;;;;;;5013204;28;20054;-67
2023/05/31 00:56:21;;;;;;;4.55;2.72;;;8.80;99.90;;;;;;5014393;28;20382;-66
2023/05/31 00:58:48;;;;;;;4.35;2.45;;;8.90;99.90;;;;;;5014311;28;20045;-66
2023/05/31 01:01:14;;;;;;;3.80;2.35;;;8.90;99.90;;;;;;5013812;28;20479;-66
2023/05/31 01:03:41;;;;;;;3.67;2.20;;;8.90;99.90;;;;;;5013843;28;20494;-67
2023/05/31 01:06:10;;;;;;;5.53;2.85;;;8.90;99.90;;;;;;5013776;28;20085;-66
2023/05/31 01:08:37;;;;;;;5.03;2.20;;;8.90;99.90;;;;;;5014497;28;20050;-67
2023/05/31 01:11:12;;;;;;;5.10;2.67;;;8.90;99.90;;;;;;5013698;28;20057;-67
2023/05/31 01:13:49;;;;;;;5.72;2.60;;;9.00;99.90;;;;;;5013805;28;20049;-66
2023/05/31 01:16:22;;;;;;;5.50;2.88;;;9.00;99.90;;;;;;5013420;28;20475;-67
2023/05/31 01:18:56;;;;;;;4.25;2.70;;;8.90;99.90;;;;;;5014014;28;20394;-66
2023/05/31 01:21:32;;;;;;;4.03;2.75;;;9.00;99.90;;;;;;5014252;28;20407;-66
2023/05/31 01:24:07;;;;;;;5.85;2.88;;;9.00;99.90;;;;;;5014419;28;20053;-66
2023/05/31 01:26:40;;;;;;;5.78;2.50;;;9.00;99.90;;;;;;5012958;28;20054;-66
2023/05/31 01:29:19;;;;;;;5.20;2.75;;;9.00;99.90;;;;;;5014352;28;20050;-67
2023/05/31 01:31:46;;;;;;;5.40;2.78;;;9.10;99.90;;;;;;5013883;28;20139;-66
2023/05/31 01:34:13;;;;;;;4.47;2.92;;;9.00;99.90;;;;;;5013509;28;20054;-67
2023/05/31 01:36:39;;;;;;;5.57;2.67;;;9.00;99.90;;;;;;5014056;28;20107;-66
2023/05/31 01:39:05;;;;;;;5.03;2.95;;;9.00;99.90;;;;;;5013492;28;20038;-66
2023/05/31 01:41:43;;;;;;;4.47;2.40;;;9.00;99.90;;;;;;5013385;28;20145;-66
2023/05/31 01:44:10;;;;;;;4.88;2.67;;;9.10;99.90;;;;;;5013468;28;20057;-66
2023/05/31 01:46:38;;;;;;;4.53;2.70;;;9.00;99.90;;;;;;5013410;28;20124;-66
2023/05/31 01:49:05;;;;;;;5.13;2.95;;;9.00;99.90;;;;;;5013283;28;20096;-66
2023/05/31 01:51:32;;;;;;;5.22;2.95;;;9.00;99.90;;;;;;5013062;28;20491;-66
2023/05/31 01:53:59;;;;;;;5.28;2.60;;;9.00;99.90;;;;;;5013294;28;20164;-67
2023/05/31 01:56:28;;;;;;;5.60;2.75;;;9.10;99.90;;;;;;5013071;28;20514;-66
2023/05/31 01:58:54;;;;;;;5.85;3.17;;;9.00;99.90;;;;;;5013278;28;20450;-66
2023/05/31 02:01:20;;;;;;;4.45;2.65;;;9.10;99.90;;;;;;5013314;28;20050;-66
2023/05/31 02:03:49;;;;;;;5.13;2.55;;;9.10;99.90;;;;;;5014475;28;20045;-66
2023/05/31 02:06:15;;;;;;;4.25;2.63;;;9.10;99.90;;;;;;5016807;28;20085;-66
2023/05/31 02:08:41;;;;;;;4.63;2.83;;;9.10;99.90;;;;;;5016591;28;20052;-66
2023/05/31 02:11:06;;;;;;;4.78;2.40;;;9.10;99.90;;;;;;5016509;28;20049;-66
2023/05/31 02:13:33;;;;;;;5.28;2.60;;;9.10;99.90;;;;;;5016890;28;20046;-66
2023/05/31 02:15:59;;;;;;;4.75;2.50;;;9.10;99.90;;;;;;5016297;28;20133;-66
2023/05/31 02:18:28;;;;;;;5.35;2.90;;;9.00;99.90;;;;;;5016554;28;20168;-66
2023/05/31 02:20:54;;;;;;;5.47;2.55;;;9.00;99.90;;;;;;5016237;28;20470;-66
2023/05/31 02:23:20;;;;;;;5.20;3.00;;;9.00;99.90;;;;;;5016447;28;20054;-67
2023/05/31 02:25:47;;;;;;;3.90;2.55;;;9.00;99.90;;;;;;5017026;28;20056;-66
2023/05/31 02:28:13;;;;;;;4.18;2.28;;;9.00;99.90;;;;;;5016298;28;20089;-66
2023/05/31 02:30:40;;;;;;;4.93;2.50;;;9.00;99.90;;;;;;5016298;28;20046;-66
2023/05/31 02:33:07;;;;;;;4.93;2.50;;;8.90;99.90;;;;;;5016897;28;20120;-66
2023/05/31 02:35:33;;;;;;;6.88;3.05;;;8.80;99.90;;;;;;5016283;28;20050;-67
2023/05/31 02:37:59;;;;;;;4.55;2.58;;;8.80;99.90;;;;;;5015596;28;20133;-66
2023/05/31 02:40:24;;;;;;;4.25;2.40;;;8.80;99.90;;;;;;5016162;28;20125;-66
2023/05/31 02:42:50;;;;;;;5.75;2.65;;;8.80;99.90;;;;;;5015729;28;20062;-66
2023/05/31 02:45:16;;;;;;;4.57;2.80;;;8.70;99.90;;;;;;5016365;28;20107;-66
2023/05/31 02:47:42;;;;;;;4.82;2.70;;;8.70;99.90;;;;;;5015945;28;20081;-66
2023/05/31 02:50:09;;;;;;;5.35;2.72;;;8.70;99.90;;;;;;5016210;28;20050;-67
2023/05/31 02:52:35;;;;;;;4.70;2.67;;;8.70;99.90;;;;;;5016497;28;20046;-67
2023/05/31 02:55:02;;;;;;;4.70;2.88;;;8.60;99.90;;;;;;5015732;28;20077;-67
2023/05/31 02:57:27;;;;;;;5.25;2.80;;;8.70;99.90;;;;;;5015790;28;20050;-67
2023/05/31 02:59:58;;;;;;;7.07;3.05;;;8.70;99.90;;;;;;5015725;28;20045;-67
2023/05/31 03:02:24;;;;;;;6.00;2.92;;;8.70;99.90;;;;;;5015741;28;20045;-67
2023/05/31 03:04:50;;;;;;;6.70;2.88;;;8.60;99.90;;;;;;5016275;28;20061;-67
2023/05/31 03:07:16;;;;;;;7.00;3.25;;;8.60;99.90;;;;;;5015703;28;20402;-67
2023/05/31 03:09:42;;;;;;;6.72;3.10;;;8.60;99.90;;;;;;5014403;28;20038;-66
2023/05/31 03:12:08;;;;;;;6.30;3.10;;;8.60;99.90;;;;;;5015596;28;20052;-67
2023/05/31 03:14:34;;;;;;;6.10;2.92;;;8.60;99.90;;;;;;5015725;28;20065;-67
2023/05/31 03:17:00;;;;;;;6.72;3.30;;;8.60;99.90;;;;;;5014676;28;20479;-67
2023/05/31 03:19:26;;;;;;;6.05;3.05;;;8.60;99.90;;;;;;5014955;28;20050;-67
2023/05/31 03:21:52;;;;;;;4.70;2.83;;;8.60;99.90;;;;;;5014803;28;20069;-67
2023/05/31 03:24:18;;;;;;;6.90;3.22;;;8.60;99.90;;;;;;5014887;28;20133;-67
2023/05/31 03:26:43;;;;;;;7.93;3.38;;;8.60;99.90;;;;;;5015663;28;20080;-67
2023/05/31 03:29:09;;;;;;;7.15;3.40;;;8.70;99.90;;;;;;5015179;28;20045;-67
2023/05/31 03:31:35;;;;;;;4.65;2.50;;;8.70;99.90;;;;;;5016008;28;20399;-67
2023/05/31 03:34:01;;;;;;;5.35;2.88;;;8.80;99.90;;;;;;5015186;28;20041;-67
2023/05/31 03:36:26;;;;;;;8.10;3.17;;;8.70;99.90;;;;;;5014850;28;20406;-67
2023/05/31 03:38:52;;;;;;;7.25;3.53;;;8.70;99.90;;;;;;5015362;28;20080;-67
2023/05/31 03:41:18;;;;;;;7.65;3.17;;;8.70;99.90;;;;;;5015363;28;20521;-67
2023/05/31 03:43:43;;;;;;;6.00;2.90;;;8.80;99.90;;;;;;5015560;28;20050;-67
2023/05/31 03:46:09;;;;;;;7.20;3.20;;;8.80;99.90;;;;;;5014757;28;20052;-68
2023/05/31 03:48:35;;;;;;;5.97;3.00;;;8.80;99.90;;;;;;5014200;28;20034;-68
2023/05/31 03:51:00;;;;;;;7.70;3.22;;;8.80;99.90;;;;;;5014855;28;20095;-67
2023/05/31 03:53:26;;;;;;;7.03;3.00;;;8.80;99.90;;;;;;5015332;28;20379;-67
2023/05/31 03:55:52;;;;;;;5.35;2.85;;;8.80;99.90;;;;;;5014766;28;20049;-67
2023/05/31 03:58:18;;;;;;;6.10;3.20;;;8.80;99.90;;;;;;5014702;28;20398;-67
2023/05/31 04:00:44;;;;;;;5.78;2.80;;;8.80;99.90;;;;;;5013756;28;20045;-67
2023/05/31 04:03:13;;;;;;;6.55;3.33;;;8.80;99.90;;;;;;5015163;28;20391;-67
2023/05/31 04:05:39;;;;;;;6.47;3.38;;;8.80;99.90;;;;;;5015129;28;20045;-67
2023/05/31 04:08:05;;;;;;;7.15;3.33;;;8.70;99.90;;;;;;5014474;28;20034;-67
2023/05/31 04:10:31;;;;;;;7.90;3.92;;;8.80;99.90;;;;;;5014524;28;20048;-67
2023/05/31 04:12:57;;;;;;;6.72;3.28;;;8.80;99.90;;;;;;5014757;28;20045;-67
2023/05/31 04:15:22;;;;;;;9.50;3.38;;;8.80;99.90;;;;;;5015113;28;20048;-67
2023/05/31 04:17:48;;;;;;;8.05;3.38;;;8.90;99.90;;;;;;5015061;28;20056;-67
2023/05/31 04:20:16;;;;;;;8.52;3.40;;;8.90;99.90;;;;;;5014144;28;20041;-67
2023/05/31 04:22:42;;;;;;;8.55;3.83;;;9.00;99.90;;;;;;5014269;28;20085;-67
2023/05/31 04:25:12;;;;;;;7.65;3.25;;;9.00;99.90;;;;;;5014196;28;20088;-67
2023/05/31 04:27:40;;;;;;;8.70;3.70;;;9.10;99.90;;;;;;5014242;28;20049;-67
2023/05/31 04:30:06;;;;;;;6.05;3.55;;;9.20;99.90;;;;;;5014227;28;20041;-67
2023/05/31 04:32:34;;;;;;;6.95;3.55;;;9.20;99.90;;;;;;5014220;28;20049;-67
2023/05/31 04:35:03;;;;;;;8.80;3.60;;;9.30;99.90;;;;;;5014128;28;20372;-67
2023/05/31 04:37:32;;;;;;;6.57;3.40;;;9.30;99.90;;;;;;5014110;28;20045;-67
2023/05/31 04:39:59;;;;;;;5.60;3.20;;;9.40;99.90;;;;;;5014129;28;20081;-68
2023/05/31 04:42:26;;;;;;;6.15;3.63;;;9.40;99.90;;;;;;5013799;28;20144;-67
2023/05/31 04:45:01;;;;;;;8.25;3.80;;;9.50;99.90;;;;;;5014291;28;20096;-67
2023/05/31 04:47:33;;;;;;;6.95;3.63;;;9.60;99.90;;;;;;5014295;28;20064;-68
2023/05/31 04:50:00;;;;;;;7.53;3.83;;;9.80;99.90;;;;;;5013894;28;20120;-67
2023/05/31 04:52:31;;;;;;;8.50;4.03;;;9.90;99.90;;;;;;5013820;28;20056;-67
2023/05/31 04:54:58;;;;;;;10.50;4.15;;;10.00;99.90;;;;;;5014124;28;20076;-67
2023/05/31 04:57:26;;;;;;;8.25;4.30;;;10.10;99.90;;;;;;5013695;28;20092;-67
2023/05/31 04:59:52;;;;;;;12.60;4.75;;;10.20;99.90;;;;;;5013771;28;20100;-67
2023/05/31 05:02:18;;;;;;;8.65;4.00;;;10.30;99.90;;;;;;5013756;28;20045;-67
2023/05/31 05:04:45;;;;;;;7.90;4.20;;;10.40;99.90;;;;;;5013804;28;20426;-67
2023/05/31 05:07:11;;;;;;;8.85;4.13;;;10.50;99.90;;;;;;5013787;28;20061;-67
2023/05/31 05:09:37;;;;;;;8.80;4.03;;;10.70;99.90;;;;;;5013712;28;20077;-67
2023/05/31 05:12:03;;;;;;;9.27;4.55;;;10.80;99.90;;;;;;5013752;28;20053;-67
2023/05/31 05:14:30;;;;;;;7.53;4.15;;;10.90;99.90;;;;;;5013949;28;20054;-67
2023/05/31 05:16:56;;;;;;;7.65;4.05;;;11.00;99.90;;;;;;5013673;28;20038;-67
2023/05/31 05:19:22;;;;;;;8.15;4.25;;;11.10;99.90;;;;;;5014169;28;20068;-67
2023/05/31 05:21:48;;;;;;;8.23;3.97;;;11.20;99.90;;;;;;5013643;28;20068;-68
2023/05/31 05:24:14;;;;;;;8.80;5.15;;;11.30;99.90;;;;;;5013532;28;20124;-67
2023/05/31 05:26:40;;;;;;;10.25;4.30;;;11.40;99.90;;;;;;5014122;28;20054;-68
2023/05/31 05:29:06;;;;;;;8.80;4.40;;;11.50;99.90;;;;;;5013538;28;20046;-67
2023/05/31 05:31:32;;;;;;;8.40;4.15;;;11.60;99.90;;;;;;5013521;28;20041;-68
2023/05/31 05:33:57;;;;;;;10.13;4.50;;;11.80;99.90;;;;;;5013513;28;20112;-67
2023/05/31 05:36:23;;;;;;;7.72;4.70;;;11.80;99.90;;;;;;5013507;28;20108;-67
2023/05/31 05:38:49;;;;;;;9.55;4.80;;;11.90;99.90;;;;;;5014615;28;20144;-67
2023/05/31 05:41:14;;;;;;;9.38;4.88;;;12.00;99.90;;;;;;5017227;28;20429;-67
2023/05/31 05:43:40;;;;;;;10.50;5.13;;;12.10;99.90;;;;;;5017806;28;20132;-67
2023/05/31 05:46:06;;;;;;;10.32;5.32;;;12.20;99.90;;;;;;5017191;28;20049;-67
2023/05/31 05:48:31;;;;;;;12.02;5.40;;;12.30;99.90;;;;;;5017053;28;20042;-67
2023/05/31 05:50:58;;;;;;;13.18;5.63;;;12.40;99.90;;;;;;5017887;28;20041;-68
2023/05/31 05:53:23;;;;;;;10.20;5.97;;;12.50;99.90;;;;;;5017184;28;20145;-67
2023/05/31 05:55:53;;;;;;;10.63;5.50;;;12.60;99.90;;;;;;5016974;28;20503;-67
2023/05/31 05:58:19;;;;;;;9.65;5.00;;;12.70;99.90;;;;;;5016634;28;20037;-68
2023/05/31 06:00:48;;;;;;;8.98;4.43;;;12.80;99.90;;;;;;5016664;28;20124;-67
2023/05/31 06:03:17;;;;;;;9.10;4.95;;;12.80;99.90;;;;;;5016579;28;20474;-67
2023/05/31 06:05:43;;;;;;;8.85;4.93;;;13.00;99.90;;;;;;5016825;28;20046;-67
2023/05/31 06:08:10;;;;;;;12.23;5.85;;;13.00;99.90;;;;;;5016772;28;20065;-68
2023/05/31 06:10:36;;;;;;;9.45;5.35;;;13.20;99.90;;;;;;5016768;28;20402;-67
2023/05/31 06:13:02;;;;;;;9.20;5.68;;;13.20;99.90;;;;;;5016713;28;20180;-68
2023/05/31 06:15:28;;;;;;;8.77;5.70;;;13.30;99.90;;;;;;5016721;28;20128;-67
2023/05/31 06:17:54;;;;;;;11.32;5.32;;;13.40;99.90;;;;;;5016592;28;20470;-63
2023/05/31 06:20:21;;;;;;;7.30;4.55;;;13.50;99.90;;;;;;5016535;28;20089;-63
2023/05/31 06:22:47;;;;;;;10.55;5.15;;;13.60;99.90;;;;;;5016476;28;20470;-63
2023/05/31 06:25:13;;;;;;;5.78;4.00;;;13.70;99.90;;;;;;5016397;28;20089;-63
2023/05/31 06:27:39;;;;;;;8.90;5.18;;;13.80;99.90;;;;;;5016435;28;20085;-63
2023/05/31 06:30:05;;;;;;;7.05;4.38;;;13.80;99.90;;;;;;5016255;28;20092;-63
2023/05/31 06:32:31;;;;;;;7.93;4.63;;;13.90;99.90;;;;;;5016975;28;20038;-63
2023/05/31 06:34:56;;;;;;;10.57;4.70;;;14.10;99.90;;;;;;5016150;28;20045;-63
2023/05/31 06:37:22;;;;;;;7.80;4.80;;;14.20;99.90;;;;;;5016167;28;20057;-63
2023/05/31 06:39:51;;;;;;;8.95;4.38;;;14.30;99.90;;;;;;5016223;28;20549;-63
2023/05/31 06:42:18;;;;;;;10.10;4.80;;;14.40;99.90;;;;;;5016059;28;20554;-63
2023/05/31 06:44:44;;;;;;;10.88;4.82;;;14.50;99.90;;;;;;5016088;28;20054;-63
2023/05/31 06:47:09;;;;;;;10.00;4.20;;;14.60;99.90;;;;;;5016049;28;20053;-64
2023/05/31 06:49:35;;;;;;;9.27;4.63;;;14.70;99.90;;;;;;5014990;28;20049;-63
2023/05/31 06:52:01;;;;;;;7.75;4.45;;;14.80;99.90;;;;;;5015807;28;20057;-63
2023/05/31 06:54:28;;;;;;;8.27;4.10;;;15.00;99.90;;;;;;5015821;28;20136;-63
2023/05/31 06:56:54;;;;;;;8.75;4.00;;;15.10;99.90;;;;;;5015795;28;20050;-63
2023/05/31 06:59:20;;;;;;;8.40;4.18;;;15.20;99.90;;;;;;5015793;28;20046;-64
2023/05/31 07:01:46;;;;;;;7.97;3.97;;;15.30;99.90;;;;;;5014523;28;20045;-63
2023/05/31 07:04:11;;;;;;;8.98;3.72;;;15.40;99.90;;;;;;5015712;28;20042;-63
2023/05/31 07:06:37;;;;;;;6.28;3.60;;;15.50;99.90;;;;;;5015709;28;20049;-63
2023/05/31 07:09:06;;;;;;;7.00;3.50;;;15.60;99.90;;;;;;5015306;28;20045;-63
2023/05/31 07:11:32;;;;;;;6.25;3.97;;;15.70;99.90;;;;;;5015599;28;20050;-63
2023/05/31 07:14:02;;;;;;;7.35;3.95;;;15.80;99.90;;;;;;5015021;28;20052;-64
2023/05/31 07:16:28;;;;;;;9.43;4.10;;;15.90;99.90;;;;;;5015105;28;20054;-65
2023/05/31 07:18:55;;;;;;;6.47;4.20;;;16.00;99.90;;;;;;5015319;28;20573;-64
2023/05/31 07:21:21;;;;;;;8.15;3.85;;;16.10;99.90;;;;;;5015328;28;20482;-64
2023/05/31 07:23:46;;;;;;;6.18;3.47;;;16.30;99.90;;;;;;5015263;28;20049;-65
2023/05/31 07:26:12;;;;;;;8.65;4.05;;;16.40;99.90;;;;;;5015472;28;20053;-65
2023/05/31 07:28:38;;;;;;;6.10;3.58;;;16.40;99.90;;;;;;5015110;28;20046;-64
2023/05/31 07:31:04;;;;;;;6.95;3.60;;;16.60;99.90;;;;;;5015187;28;20124;-64
2023/05/31 07:33:30;;;;;;;6.25;3.50;;;16.60;99.90;;;;;;5015480;28;20058;-65
2023/05/31 07:36:02;;;;;;;9.45;3.85;;;16.80;99.90;;;;;;5014166;28;20081;-64
2023/05/31 07:38:28;;;;;;;8.25;3.85;;;16.80;99.90;;;;;;5015566;28;20042;-65
2023/05/31 07:40:54;;;;;;;6.40;3.22;;;16.90;99.90;;;;;;5015450;28;20049;-64
2023/05/31 07:43:22;;;;;;;5.97;3.45;;;16.90;99.90;;;;;;5013823;28;20376;-64
2023/05/31 07:45:49;;;;;;;7.40;3.40;;;17.00;99.90;;;;;;5015354;28;20188;-64
2023/05/31 07:48:16;;;;;;;6.75;3.40;;;17.00;99.90;;;;;;5015270;28;20056;-64
2023/05/31 07:50:41;;;;;;;5.97;2.97;;;17.10;99.90;;;;;;5015040;28;20437;-64
2023/05/31 07:53:07;;;;;;;6.90;3.05;;;17.20;99.90;;;;;;5014891;28;20133;-64
2023/05/31 07:55:33;;;;;;;7.25;3.30;;;17.40;99.90;;;;;;5015232;28;20049;-64
2023/05/31 07:57:58;;;;;;;4.72;2.97;;;17.60;99.90;;;;;;5014627;28;20073;-64
2023/05/31 08:00:24;;;;;;;6.00;3.38;;;17.70;99.90;;;;;;5014639;28;20088;-64
2023/05/31 08:02:50;;;;;;;6.80;3.40;;;17.80;99.90;;;;;;5014327;28;20555;-64
2023/05/31 08:05:16;;;;;;;5.10;2.90;;;17.90;99.90;;;;;;5015140;28;20089;-64
2023/05/31 08:07:41;;;;;;;7.35;3.80;;;18.00;99.90;;;;;;5013390;28;20383;-64
2023/05/31 08:10:07;;;;;;;5.95;3.08;;;18.10;99.90;;;;;;5014557;28;20038;-64
2023/05/31 08:12:33;;;;;;;4.63;2.63;;;18.10;99.90;;;;;;5014783;28;20053;-64
2023/05/31 08:14:59;;;;;;;6.05;2.88;;;18.20;99.90;;;;;;5014863;28;20046;-63
2023/05/31 08:17:25;;;;;;;5.28;2.60;;;18.30;99.90;;;;;;5014385;28;20050;-63
2023/05/31 08:19:51;;;;;;;6.47;2.60;;;18.40;99.90;;;;;;5013293;28;20049;-64
2023/05/31 08:22:17;;;;;;;6.22;2.80;;;18.50;99.90;;;;;;5013150;28;20038;-64
2023/05/31 08:24:43;;;;;;;5.10;3.00;;;18.60;99.90;;;;;;5014127;28;20535;-67
2023/05/31 08:27:09;;;;;;;6.65;2.92;;;18.90;99.90;;;;;;5013959;28;20468;-64
2023/05/31 08:29:34;;;;;;;5.47;2.72;;;19.10;99.90;;;;;;5014076;28;20042;-63
2023/05/31 08:32:00;;;;;;;5.25;2.58;;;19.10;99.90;;;;;;5014172;28;20049;-63
2023/05/31 08:34:27;;;;;;;6.75;2.65;;;19.20;99.90;;;;;;5013833;28;20050;-63
2023/05/31 08:36:53;;;;;;;5.18;2.80;;;19.10;99.90;;;;;;5014196;28;20100;-63
2023/05/31 08:39:18;;;;;;;4.80;2.58;;;19.40;99.90;;;;;;5014085;28;20049;-63
2023/05/31 08:42:07;;;;;;;5.15;2.55;;;19.60;99.90;;;;;;5014247;28;20062;-63
2023/05/31 08:44:33;;;;;;;4.55;2.50;;;19.70;99.90;;;;;;5014817;28;20153;-63
2023/05/31 08:47:08;;;;;;;5.68;2.50;;;19.70;99.90;;;;;;5014003;28;20435;-63
2023/05/31 08:49:36;;;;;;;6.53;3.03;;;19.80;99.90;;;;;;5014198;28;20056;-63
2023/05/31 08:52:01;;;;;;;4.13;2.30;;;19.90;99.90;;;;;;5013964;28;20042;-63
2023/05/31 08:54:29;;;;;;;2.88;2.08;;;20.00;99.90;;;;;;5013862;28;20073;-63
2023/05/31 08:56:55;;;;;;;4.75;2.25;;;20.10;99.90;;;;;;5013841;28;20046;-63
2023/05/31 08:59:21;;;;;;;5.32;2.67;;;20.20;99.90;;;;;;5013554;28;20376;-63
2023/05/31 09:01:49;;;;;;;3.63;1.98;;;20.30;99.90;;;;;;5014310;28;20050;-63
2023/05/31 09:04:16;;;;;;;5.93;2.15;;;20.50;99.90;;;;;;5013830;28;20048;-63
2023/05/31 09:06:43;;;;;;;4.22;1.63;;;20.60;99.90;;;;;;5013828;28;20050;-63
2023/05/31 09:09:08;;;;;;;4.78;2.33;;;20.60;99.90;;;;;;5013656;28;20045;-63
2023/05/31 09:11:40;;;;;;;4.97;2.40;;;20.70;99.90;;;;;;5014293;28;20049;-63
2023/05/31 09:14:09;;;;;;;5.07;2.50;;;20.90;99.90;;;;;;5015339;28;20064;-63
2023/05/31 09:16:35;;;;;;;4.55;2.10;;;21.00;99.90;;;;;;5018518;28;20085;-64
2023/05/31 09:19:04;;;;;;;3.55;2.25;;;21.10;99.90;;;;;;5018185;28;20092;-63
2023/05/31 09:21:39;;;;;;;4.80;2.22;;;21.20;99.90;;;;;;5017708;28;20057;-63
2023/05/31 09:24:05;;;;;;;6.05;2.72;;;21.20;99.90;;;;;;5018677;28;20065;-63
2023/05/31 09:26:32;;;;;;;4.07;2.38;;;21.30;99.90;;;;;;5017515;28;20125;-62
2023/05/31 09:28:59;;;;;;;5.05;2.00;;;21.20;99.90;;;;;;5017631;28;20448;-63
2023/05/31 09:31:25;;;;;;;4.70;2.33;;;21.30;99.90;;;;;;5017371;28;20081;-62
2023/05/31 09:33:51;;;;;;;6.38;2.20;;;21.30;99.90;;;;;;5016444;28;20054;-63
2023/05/31 09:36:43;;;;;;;4.68;2.30;;;21.20;99.90;;;;;;5017167;28;20049;-63
2023/05/31 09:39:09;;;;;;;4.35;2.05;;;21.20;99.90;;;;;;5016172;28;20515;-62
2023/05/31 09:41:35;;;;;;;5.25;2.22;;;21.30;99.90;;;;;;5016982;28;20057;-62
2023/05/31 09:44:01;;;;;;;8.00;2.53;;;21.50;99.90;;;;;;5017293;28;20056;-62
2023/05/31 09:46:27;;;;;;;5.25;2.90;;;21.80;99.90;;;;;;5017905;28;20093;-63
2023/05/31 09:49:11;;;;;;;6.55;2.20;;;21.90;99.90;;;;;;5016797;28;20096;-63
2023/05/31 09:51:37;;;;;;;4.20;2.13;;;22.00;99.90;;;;;;5017630;28;20463;-63
2023/05/31 09:54:11;;;;;;;7.65;2.80;;;22.20;99.90;;;;;;5017201;28;20129;-63
2023/05/31 09:56:38;;;;;;;3.55;2.28;;;22.40;99.90;;;;;;5016899;28;20046;-63
2023/05/31 09:59:05;;;;;;;4.80;2.83;;;22.60;99.90;;;;;;5016948;28;20085;-63
2023/05/31 10:01:35;;;;;;;6.18;2.95;;;22.90;99.90;;;;;;5016814;28;20438;-63
2023/05/31 10:04:03;;;;;;;4.32;2.50;;;23.00;99.90;;;;;;5016887;28;20050;-63
2023/05/31 10:06:31;;;;;;;4.38;2.13;;;23.20;99.90;;;;;;5016802;28;20622;-63
2023/05/31 10:08:56;;;;;;;7.57;2.65;;;23.20;99.90;;;;;;5016907;28;20566;-63
2023/05/31 10:11:28;;;;;;;4.80;2.40;;;23.20;99.90;;;;;;5016939;28;20081;-64
2023/05/31 10:13:59;;;;;;;3.95;2.22;;;23.30;99.90;;;;;;5016775;28;20053;-65
2023/05/31 10:16:32;;;;;;;5.20;2.67;;;23.30;99.90;;;;;;5017464;28;20360;-64
2023/05/31 10:19:04;;;;;;;5.63;2.42;;;23.20;99.90;;;;;;5016568;28;20038;-64
2023/05/31 10:21:30;;;;;;;4.40;2.72;;;23.30;99.90;;;;;;5016519;28;20041;-64
2023/05/31 10:24:07;;;;;;;6.72;2.85;;;23.50;99.90;;;;;;5016343;28;20129;-65
2023/05/31 10:26:58;;;;;;;6.93;2.22;;;23.60;99.90;;;;;;5016768;28;20045;-63
2023/05/31 10:29:33;;;;;;;5.00;2.30;;;23.70;99.90;;;;;;5016462;28;20050;-67
2023/05/31 10:32:15;;;;;;;2.92;1.90;;;23.80;99.90;;;;;;5016383;28;20049;-63
2023/05/31 10:34:41;;;;;;;5.25;2.42;;;23.90;99.90;;;;;;5016261;28;20088;-63
2023/05/31 10:37:09;;;;;;;3.35;2.35;;;23.90;99.90;;;;;;5016259;28;20087;-63
2023/05/31 10:39:46;;;;;;;4.75;2.17;;;23.70;99.90;;;;;;5015207;28;20145;-63
2023/05/31 10:42:47;;;;;;;3.58;2.10;;;23.80;99.90;;;;;;5015109;28;20054;-63
2023/05/31 10:45:28;;;;;;;3.00;1.90;;;23.90;99.90;;;;;;5016671;28;20459;-63
2023/05/31 10:48:27;;;;;;;6.00;2.70;;;24.10;99.90;;;;;;5016579;28;20061;-63
2023/05/31 10:50:54;;;;;;;3.53;2.33;;;24.30;99.90;;;;;;5011956;28;20069;-63
2023/05/31 10:53:20;;;;;;;4.28;2.40;;;24.50;99.90;;;;;;5014677;28;20050;-65
2023/05/31 10:55:47;;;;;;;5.32;2.63;;;24.60;99.90;;;;;;5015948;28;20053;-65
2023/05/31 10:58:30;;;;;;;5.07;2.38;;;24.70;99.90;;;;;;5015890;28;20049;-66
2023/05/31 11:01:02;;;;;;;4.90;2.78;;;24.80;99.90;;;;;;5016472;28;20045;-65
2023/05/31 11:03:29;;;;;;;4.28;2.30;;;24.80;99.90;;;;;;5016744;28;20045;-65
2023/05/31 11:05:59;;;;;;;5.38;2.90;;;24.80;99.90;;;;;;5015463;28;20053;-66
2023/05/31 11:08:29;;;;;;;4.47;2.53;;;24.90;99.90;;;;;;5015868;28;20053;-66
2023/05/31 11:11:28;;;;;;;5.65;2.50;;;25.10;99.90;;;;;;5015551;28;20133;-65
2023/05/31 11:14:00;;;;;;;4.45;2.33;;;25.30;99.90;;;;;;5014950;28;20050;-64
2023/05/31 11:17:06;;;;;;;5.70;2.45;;;25.50;99.90;;;;;;5014560;28;20395;-64
2023/05/31 11:19:35;;;;;;;4.05;2.30;;;25.60;99.90;;;;;;5008807;28;20050;-64
2023/05/31 11:22:08;;;;;;;4.90;2.38;;;25.60;99.90;;;;;;5015384;28;20077;-64
2023/05/31 11:24:50;;;;;;;4.43;2.60;;;25.60;99.90;;;;;;5015311;28;20089;-64
2023/05/31 11:27:20;;;;;;;6.15;2.50;;;25.60;99.90;;;;;;5015918;28;20053;-65
2023/05/31 11:29:52;;;;;;;3.50;2.08;;;25.80;99.90;;;;;;5015934;28;20054;-65
2023/05/31 11:32:22;;;;;;;4.40;2.78;;;25.90;99.90;;;;;;5015233;28;20128;-64
2023/05/31 11:34:53;;;;;;;4.30;2.70;;;25.90;99.90;;;;;;5015454;28;20053;-64
2023/05/31 11:37:23;;;;;;;5.28;2.97;;;25.90;99.90;;;;;;5014524;28;20096;-65
2023/05/31 11:39:49;;;;;;;4.32;2.13;;;25.80;99.90;;;;;;5015051;28;20045;-64
2023/05/31 11:42:15;;;;;;;5.88;2.97;;;25.80;99.90;;;;;;5014840;28;20069;-64
2023/05/31 11:44:43;;;;;;;6.25;3.10;;;25.80;99.90;;;;;;5014914;28;20052;-64
2023/05/31 11:47:11;;;;;;;4.38;2.40;;;25.80;99.90;;;;;;5014992;28;20092;-64
2023/05/31 11:49:37;;;;;;;4.82;2.80;;;25.70;99.90;;;;;;5015516;28;20038;-65
2023/05/31 11:52:04;;;;;;;5.65;2.70;;;25.70;99.90;;;;;;5015332;28;20057;-64
2023/05/31 11:54:32;;;;;;;5.00;2.72;;;25.60;99.90;;;;;;5014794;28;20049;-65
2023/05/31 11:57:06;;;;;;;3.95;2.30;;;25.60;99.90;;;;;;5014607;28;20046;-68
2023/05/31 11:59:33;;;;;;;4.87;2.53;;;25.80;99.90;;;;;;5015655;28;20128;-65
2023/05/31 12:02:01;;;;;;;4.75;2.95;;;25.80;99.90;;;;;;5014225;28;20419;-65
2023/05/31 12:04:37;;;;;;;4.25;2.30;;;25.80;99.90;;;;;;5015405;28;20050;-66
2023/05/31 12:07:05;;;;;;;5.28;2.50;;;25.70;99.90;;;;;;5014905;28;20049;-64
2023/05/31 12:09:33;;;;;;;4.63;3.00;;;25.70;99.90;;;;;;5014415;28;20089;-64
2023/05/31 12:12:03;;;;;;;6.40;3.20;;;25.70;99.90;;;;;;5014326;28;20050;-66
2023/05/31 12:14:29;;;;;;;8.20;2.90;;;25.50;99.90;;;;;;5014808;28;20073;-66
2023/05/31 12:16:55;;;;;;;5.10;3.08;;;25.50;99.90;;;;;;5014368;28;20434;-66
2023/05/31 12:19:21;;;;;;;5.78;3.05;;;25.70;99.90;;;;;;5014935;28;20042;-65
2023/05/31 12:21:47;;;;;;;5.82;2.95;;;25.90;99.90;;;;;;5013192;28;20053;-65
2023/05/31 12:24:15;;;;;;;6.32;2.42;;;26.10;99.90;;;;;;5013287;28;20445;-66
2023/05/31 12:26:45;;;;;;;5.53;2.75;;;26.10;99.90;;;;;;5014516;28;20042;-65
2023/05/31 12:29:15;;;;;;;5.13;2.58;;;26.00;99.90;;;;;;5014246;28;20041;-65
2023/05/31 12:31:41;;;;;;;5.53;2.70;;;26.00;99.90;;;;;;5014172;28;20137;-66
2023/05/31 12:34:12;;;;;;;5.00;2.85;;;26.10;99.90;;;;;;5014648;28;20052;-63
2023/05/31 12:36:41;;;;;;;5.15;3.20;;;26.10;99.90;;;;;;5014145;28;20053;-62
2023/05/31 12:39:19;;;;;;;5.13;3.20;;;26.10;99.90;;;;;;5014087;28;20084;-62
2023/05/31 12:41:47;;;;;;;6.18;2.72;;;26.30;99.90;;;;;;5014646;28;20140;-62
2023/05/31 12:44:18;;;;;;;6.18;3.20;;;26.40;99.90;;;;;;5012844;28;20080;-62
2023/05/31 12:46:45;;;;;;;5.43;2.83;;;26.60;99.90;;;;;;5012877;28;20052;-62
2023/05/31 12:49:25;;;;;;;5.93;2.90;;;26.80;99.90;;;;;;5013054;28;20042;-62
2023/05/31 12:52:02;;;;;;;4.55;2.60;;;26.80;99.90;;;;;;5014254;28;20100;-62
2023/05/31 12:54:30;;;;;;;4.30;2.90;;;27.00;99.90;;;;;;5014218;28;20053;-62